createdAt,value
2017-06-09T00:02:19.933Z,14.60
2017-06-09T00:04:48.004Z,14.60
2017-06-09T00:07:16.104Z,14.70
2017-06-09T00:09:44.175Z,14.60
2017-06-09T00:12:12.251Z,14.50
2017-06-09T00:14:40.355Z,14.30
2017-06-09T00:17:08.436Z,14.30
2017-06-09T00:19:36.517Z,14.20
2017-06-09T00:22:04.592Z,14.30
2017-06-09T00:24:32.679Z,14.20
2017-06-09T00:27:00.738Z,14.20
2017-06-09T00:29:28.833Z,14.20
2017-06-09T00:31:56.909Z,14.20
2017-06-09T00:34:25.011Z,14.20
2017-06-09T00:36:53.084Z,14.20
2017-06-09T00:39:21.161Z,14.10
2017-06-09T00:41:49.247Z,14.10
2017-06-09T00:44:17.367Z,14.10
2017-06-09T00:46:45.456Z,14.00
2017-06-09T00:49:13.533Z,13.90
2017-06-09T00:51:41.634Z,13.90
2017-06-09T00:54:09.711Z,13.90
2017-06-09T00:56:37.781Z,13.70
2017-06-09T00:59:05.864Z,13.70
2017-06-09T01:01:33.931Z,13.70
2017-06-09T01:04:02.023Z,13.60
2017-06-09T01:06:30.102Z,13.70
2017-06-09T01:08:58.207Z,13.80
2017-06-09T01:11:26.382Z,13.50
2017-06-09T01:13:54.455Z,13.70
2017-06-09T01:16:22.569Z,13.60
2017-06-09T01:18:50.609Z,13.50
2017-06-09T01:21:18.695Z,13.50
2017-06-09T01:23:46.772Z,13.50
2017-06-09T01:26:14.861Z,13.70
2017-06-09T01:28:42.940Z,13.70
2017-06-09T01:31:11.027Z,13.70
2017-06-09T01:33:39.112Z,13.80
2017-06-09T01:36:07.183Z,13.80
2017-06-09T01:38:35.284Z,13.80
2017-06-09T01:41:03.364Z,13.60
2017-06-09T01:43:31.459Z,13.70
2017-06-09T01:45:59.531Z,13.70
2017-06-09T01:48:27.625Z,13.60
2017-06-09T01:50:55.708Z,13.70
2017-06-09T01:53:23.796Z,13.70
2017-06-09T01:55:51.880Z,13.80
2017-06-09T01:58:19.959Z,13.70
2017-06-09T02:00:48.057Z,13.70
2017-06-09T02:03:16.139Z,13.70
2017-06-09T02:05:44.234Z,13.60
2017-06-09T02:08:12.319Z,13.60
2017-06-09T02:10:40.404Z,13.40
2017-06-09T02:13:08.511Z,13.30
2017-06-09T02:15:36.612Z,13.20
2017-06-09T02:18:04.692Z,13.30
2017-06-09T02:20:32.771Z,13.40
2017-06-09T02:23:00.854Z,13.30
2017-06-09T02:25:28.927Z,13.30
2017-06-09T02:27:57.008Z,13.30
2017-06-09T02:30:25.084Z,13.30
2017-06-09T02:32:53.172Z,13.30
2017-06-09T02:35:21.258Z,13.10
2017-06-09T02:37:49.354Z,13.10
2017-06-09T02:40:17.431Z,13.00
2017-06-09T02:42:45.519Z,13.00
2017-06-09T02:45:13.599Z,13.00
2017-06-09T02:47:41.679Z,12.90
2017-06-09T02:50:09.773Z,12.90
2017-06-09T02:52:37.853Z,12.90
2017-06-09T02:55:05.940Z,12.80
2017-06-09T02:57:34.024Z,12.90
2017-06-09T03:00:02.130Z,12.80
2017-06-09T03:02:30.207Z,12.70
2017-06-09T03:04:58.400Z,12.70
2017-06-09T03:07:26.491Z,12.60
2017-06-09T03:09:54.579Z,12.50
2017-06-09T03:12:22.668Z,12.50
2017-06-09T03:14:50.752Z,12.10
2017-06-09T03:17:18.856Z,12.30
2017-06-09T03:19:46.941Z,12.30
2017-06-09T03:22:15.339Z,11.90
2017-06-09T03:24:43.420Z,12.10
2017-06-09T03:27:11.495Z,11.90
2017-06-09T03:29:39.581Z,12.10
2017-06-09T03:32:13.343Z,11.70
2017-06-09T03:34:41.463Z,11.90
2017-06-09T03:37:09.543Z,12.10
2017-06-09T03:39:37.635Z,12.30
2017-06-09T03:42:05.720Z,12.30
2017-06-09T03:44:33.812Z,12.40
2017-06-09T03:47:01.899Z,12.50
2017-06-09T03:49:29.975Z,12.60
2017-06-09T03:51:58.090Z,12.60
2017-06-09T03:54:26.163Z,12.60
2017-06-09T03:56:54.241Z,12.60
2017-06-09T03:59:22.322Z,12.70
2017-06-09T04:01:50.397Z,12.70
2017-06-09T04:04:18.479Z,12.80
2017-06-09T04:06:46.565Z,12.80
2017-06-09T04:09:14.672Z,13.00
2017-06-09T04:11:42.759Z,13.20
2017-06-09T04:14:10.847Z,13.20
2017-06-09T04:16:38.940Z,13.30
2017-06-09T04:19:07.021Z,13.30
2017-06-09T04:21:35.104Z,13.50
2017-06-09T04:24:03.182Z,13.60
2017-06-09T04:26:31.277Z,13.70
2017-06-09T04:28:59.353Z,13.60
2017-06-09T04:31:27.429Z,13.70
2017-06-09T04:33:55.511Z,13.80
2017-06-09T04:36:23.595Z,14.10
2017-06-09T04:38:51.684Z,14.40
2017-06-09T04:41:19.755Z,14.60
2017-06-09T04:43:47.835Z,14.80
2017-06-09T04:46:15.912Z,15.10
2017-06-09T04:48:44.017Z,15.20
2017-06-09T04:51:12.095Z,15.20
2017-06-09T04:53:40.212Z,15.40
2017-06-09T04:56:08.294Z,15.60
2017-06-09T04:58:36.379Z,15.60
2017-06-09T05:01:04.471Z,15.70
2017-06-09T05:03:32.557Z,15.80
2017-06-09T05:06:00.645Z,15.80
2017-06-09T05:08:28.726Z,15.60
2017-06-09T05:10:56.808Z,15.60
2017-06-09T05:13:24.888Z,15.60
2017-06-09T05:15:52.963Z,15.70
2017-06-09T05:18:21.043Z,15.90
2017-06-09T05:20:54.798Z,16.10
2017-06-09T05:23:22.900Z,16.10
2017-06-09T05:25:50.989Z,16.10
2017-06-09T05:28:26.629Z,16.10
2017-06-09T05:30:54.707Z,16.10
2017-06-09T05:33:22.846Z,16.00
2017-06-09T05:35:50.928Z,16.00
2017-06-09T05:38:19.017Z,16.40
2017-06-09T05:40:47.108Z,16.60
2017-06-09T05:43:15.188Z,16.70
2017-06-09T05:45:43.275Z,16.70
2017-06-09T05:48:11.356Z,16.90
2017-06-09T05:50:39.455Z,17.00
2017-06-09T05:53:07.539Z,17.00
2017-06-09T05:55:35.628Z,17.40
2017-06-09T05:58:03.716Z,17.70
2017-06-09T06:00:31.803Z,17.40
2017-06-09T06:02:59.883Z,17.60
2017-06-09T06:05:27.957Z,17.70
2017-06-09T06:07:56.039Z,17.80
2017-06-09T06:10:24.115Z,17.80
2017-06-09T06:12:52.215Z,17.90
2017-06-09T06:15:20.291Z,17.80
2017-06-09T06:17:48.379Z,18.00
2017-06-09T06:20:16.475Z,18.00
2017-06-09T06:22:44.563Z,18.00
2017-06-09T06:25:12.652Z,18.30
2017-06-09T06:27:40.722Z,18.40
2017-06-09T06:30:08.818Z,18.50
2017-06-09T06:32:36.916Z,18.60
2017-06-09T06:35:05.009Z,18.70
2017-06-09T06:37:33.083Z,18.80
2017-06-09T06:40:01.160Z,18.90
2017-06-09T06:42:29.244Z,19.30
2017-06-09T06:44:57.317Z,19.50
2017-06-09T06:47:25.409Z,19.50
2017-06-09T06:49:53.490Z,19.60
2017-06-09T06:52:21.571Z,19.50
2017-06-09T06:54:49.657Z,19.50
2017-06-09T06:57:17.758Z,19.90
2017-06-09T06:59:45.835Z,19.80
2017-06-09T07:02:13.928Z,19.70
2017-06-09T07:04:42.051Z,19.70
2017-06-09T07:07:10.122Z,19.70
2017-06-09T07:09:38.209Z,19.80
2017-06-09T07:12:06.287Z,19.90
2017-06-09T07:14:34.379Z,19.90
2017-06-09T07:17:02.447Z,20.30
2017-06-09T07:19:30.546Z,20.40
2017-06-09T07:21:58.623Z,20.50
2017-06-09T07:24:26.695Z,20.40
2017-06-09T07:26:54.784Z,20.70
2017-06-09T07:29:22.874Z,20.90
2017-06-09T07:31:50.966Z,21.10
2017-06-09T07:34:19.087Z,21.00
2017-06-09T07:36:47.164Z,21.10
2017-06-09T07:39:15.241Z,21.20
2017-06-09T07:41:43.334Z,21.60
2017-06-09T07:44:11.407Z,22.00
2017-06-09T07:46:39.483Z,22.40
2017-06-09T07:49:07.580Z,22.30
2017-06-09T07:51:35.662Z,22.60
2017-06-09T07:54:03.744Z,22.60
2017-06-09T07:56:31.821Z,22.20
2017-06-09T07:58:59.963Z,22.10
2017-06-09T08:01:28.061Z,22.30
2017-06-09T08:03:56.152Z,22.30
2017-06-09T08:06:24.228Z,22.30
2017-06-09T08:08:52.303Z,22.50
2017-06-09T08:11:20.399Z,22.70
2017-06-09T08:13:48.475Z,22.30
2017-06-09T08:16:16.559Z,22.50
2017-06-09T08:18:44.654Z,23.00
2017-06-09T08:21:12.745Z,23.00
2017-06-09T08:23:40.827Z,23.40
2017-06-09T08:26:08.916Z,23.80
2017-06-09T08:28:36.996Z,23.50
2017-06-09T08:31:05.067Z,23.80
2017-06-09T08:33:33.159Z,24.10
2017-06-09T08:36:01.239Z,24.30
2017-06-09T08:38:29.331Z,24.20
2017-06-09T08:40:57.415Z,24.20
2017-06-09T08:43:25.510Z,24.10
2017-06-09T08:45:53.576Z,24.00
2017-06-09T08:48:21.695Z,24.50
2017-06-09T08:50:49.783Z,24.60
2017-06-09T08:53:17.851Z,24.90
2017-06-09T08:55:45.938Z,25.00
2017-06-09T08:58:14.016Z,24.90
2017-06-09T09:00:42.099Z,24.90
2017-06-09T09:03:10.991Z,25.00
2017-06-09T09:05:39.074Z,25.90
2017-06-09T09:08:07.158Z,26.20
2017-06-09T09:10:35.246Z,25.70
2017-06-09T09:13:03.311Z,25.70
2017-06-09T09:15:31.386Z,25.40
2017-06-09T09:17:59.478Z,25.50
2017-06-09T09:20:27.562Z,25.10
2017-06-09T09:22:55.635Z,25.40
2017-06-09T09:25:23.707Z,25.40
2017-06-09T09:27:51.791Z,25.60
2017-06-09T09:30:19.874Z,25.90
2017-06-09T09:32:47.965Z,25.70
2017-06-09T09:35:16.040Z,25.60
2017-06-09T09:37:44.121Z,25.50
2017-06-09T09:40:12.203Z,25.30
2017-06-09T09:42:40.279Z,25.40
2017-06-09T09:45:08.373Z,25.70
2017-06-09T09:47:36.456Z,26.10
2017-06-09T09:50:04.559Z,26.10
2017-06-09T09:52:32.644Z,26.00
2017-06-09T09:55:00.717Z,26.20
2017-06-09T09:57:28.789Z,25.60
2017-06-09T09:59:56.863Z,26.00
2017-06-09T10:02:24.939Z,26.30
2017-06-09T10:04:53.012Z,26.20
2017-06-09T10:07:21.116Z,25.70
2017-06-09T10:09:49.188Z,26.10
2017-06-09T10:12:17.271Z,26.20
2017-06-09T10:14:45.349Z,26.20
2017-06-09T10:17:13.426Z,26.30
2017-06-09T10:19:41.532Z,26.40
2017-06-09T10:22:09.611Z,26.30
2017-06-09T10:24:37.881Z,26.20
2017-06-09T10:27:06.002Z,26.10
2017-06-09T10:29:34.072Z,26.90
2017-06-09T10:32:02.166Z,26.90
2017-06-09T10:34:30.239Z,27.40
2017-06-09T10:36:58.328Z,27.60
2017-06-09T10:39:26.406Z,28.00
2017-06-09T10:41:54.487Z,28.00
2017-06-09T10:44:22.640Z,27.70
2017-06-09T10:46:50.723Z,26.70
2017-06-09T10:49:18.800Z,26.50
2017-06-09T10:51:46.872Z,27.20
2017-06-09T10:54:14.971Z,27.00
2017-06-09T10:56:43.058Z,27.10
2017-06-09T10:59:11.135Z,26.70
2017-06-09T11:01:39.219Z,27.30
2017-06-09T11:04:07.334Z,27.50
2017-06-09T11:06:35.421Z,28.20
2017-06-09T11:09:03.511Z,27.30
2017-06-09T11:11:31.587Z,27.70
2017-06-09T11:13:59.665Z,27.40
2017-06-09T11:16:27.743Z,26.90
2017-06-09T11:18:55.822Z,27.20
2017-06-09T11:21:23.899Z,27.40
2017-06-09T11:23:51.975Z,27.00
2017-06-09T11:26:20.080Z,26.60
2017-06-09T11:28:48.166Z,26.80
2017-06-09T11:31:16.245Z,27.10
2017-06-09T11:33:44.326Z,27.60
2017-06-09T11:36:12.415Z,27.20
2017-06-09T11:38:40.507Z,27.10
2017-06-09T11:41:08.573Z,27.10
2017-06-09T11:43:36.675Z,27.30
2017-06-09T11:46:04.750Z,27.20
2017-06-09T11:48:32.855Z,27.20
2017-06-09T11:51:00.935Z,26.60
2017-06-09T11:53:29.131Z,26.30
2017-06-09T11:55:57.206Z,26.10
2017-06-09T11:58:25.306Z,25.90
2017-06-09T12:00:53.379Z,26.10
2017-06-09T12:03:21.513Z,26.20
2017-06-09T12:05:57.436Z,26.40
2017-06-09T12:08:26.351Z,26.10
2017-06-09T12:10:54.550Z,26.30
2017-06-09T12:13:23.406Z,26.50
2017-06-09T12:15:51.495Z,26.50
2017-06-09T12:18:29.704Z,26.90
2017-06-09T12:20:58.063Z,26.50
2017-06-09T12:23:26.935Z,26.30
2017-06-09T12:25:56.030Z,26.30
2017-06-09T12:28:24.454Z,26.20
2017-06-09T12:30:52.743Z,26.20
2017-06-09T12:33:20.850Z,26.20
2017-06-09T12:35:48.923Z,26.20
2017-06-09T12:38:17.046Z,26.20
2017-06-09T12:40:45.122Z,26.20
2017-06-09T12:43:13.203Z,26.60
2017-06-09T12:45:41.291Z,26.40
2017-06-09T12:48:10.149Z,25.80
2017-06-09T12:50:38.330Z,25.80
2017-06-09T12:53:06.425Z,25.60
2017-06-09T12:55:34.507Z,24.70
2017-06-09T12:58:02.658Z,24.70
2017-06-09T13:00:31.639Z,24.10
2017-06-09T13:02:59.728Z,24.10
2017-06-09T13:05:27.808Z,24.10
2017-06-09T13:07:55.894Z,24.50
2017-06-09T13:10:23.984Z,24.30
2017-06-09T13:12:52.076Z,24.60
2017-06-09T13:15:20.147Z,24.00
2017-06-09T13:17:48.220Z,24.30
2017-06-09T13:20:16.299Z,23.40
2017-06-09T13:22:44.379Z,23.60
2017-06-09T13:25:12.458Z,23.60
2017-06-09T13:27:40.536Z,23.80
2017-06-09T13:30:08.624Z,23.10
2017-06-09T13:32:36.705Z,23.50
2017-06-09T13:35:04.788Z,23.60
2017-06-09T13:37:32.860Z,23.30
2017-06-09T13:40:00.946Z,22.40
2017-06-09T13:42:29.018Z,22.40
2017-06-09T13:44:57.098Z,22.50
2017-06-09T13:47:25.178Z,22.40
2017-06-09T13:49:53.268Z,22.80
2017-06-09T13:52:21.449Z,22.30
2017-06-09T13:54:49.515Z,22.10
2017-06-09T13:57:17.620Z,22.60
2017-06-09T13:59:45.691Z,22.20
2017-06-09T14:02:13.777Z,22.30
2017-06-09T14:04:41.858Z,22.20
2017-06-09T14:07:09.952Z,22.00
2017-06-09T14:09:38.248Z,21.50
2017-06-09T14:12:06.334Z,21.70
2017-06-09T14:14:34.451Z,21.70
2017-06-09T14:17:02.551Z,22.00
2017-06-09T14:19:30.627Z,21.70
2017-06-09T14:21:58.720Z,21.70
2017-06-09T14:24:26.796Z,22.20
2017-06-09T14:26:54.878Z,22.20
2017-06-09T14:29:22.962Z,21.70
2017-06-09T14:31:51.048Z,22.00
2017-06-09T14:34:19.130Z,21.80
2017-06-09T14:36:47.229Z,21.40
2017-06-09T14:39:15.305Z,21.10
2017-06-09T14:41:43.404Z,21.50
2017-06-09T14:44:11.480Z,21.40
2017-06-09T14:46:39.568Z,21.70
2017-06-09T14:49:07.663Z,22.20
2017-06-09T14:51:35.739Z,22.30
2017-06-09T14:54:03.830Z,22.00
2017-06-09T14:56:31.904Z,21.70
2017-06-09T14:59:00.014Z,21.90
2017-06-09T15:01:28.108Z,21.50
2017-06-09T15:03:56.185Z,21.50
2017-06-09T15:06:24.275Z,21.60
2017-06-09T15:08:52.378Z,21.00
2017-06-09T15:11:20.479Z,20.70
2017-06-09T15:13:48.638Z,20.70
2017-06-09T15:16:16.715Z,20.90
2017-06-09T15:18:44.796Z,20.70
2017-06-09T15:21:12.885Z,20.70
2017-06-09T15:23:40.972Z,20.80
2017-06-09T15:26:09.053Z,20.50
2017-06-09T15:28:37.127Z,20.60
2017-06-09T15:31:05.219Z,20.80
2017-06-09T15:33:33.328Z,21.00
2017-06-09T15:36:01.418Z,20.70
2017-06-09T15:38:29.498Z,20.60
2017-06-09T15:40:57.607Z,20.40
2017-06-09T15:43:25.679Z,20.10
2017-06-09T15:45:53.782Z,20.00
2017-06-09T15:48:21.867Z,19.80
2017-06-09T15:50:49.978Z,19.50
2017-06-09T15:53:18.090Z,19.40
2017-06-09T15:55:46.188Z,19.50
2017-06-09T15:58:14.269Z,18.90
2017-06-09T16:00:42.348Z,18.90
2017-06-09T16:03:10.430Z,18.70
2017-06-09T16:05:38.504Z,18.60
2017-06-09T16:08:06.583Z,18.40
2017-06-09T16:10:34.656Z,18.50
2017-06-09T16:13:02.743Z,18.70
2017-06-09T16:15:30.838Z,19.20
2017-06-09T16:17:58.936Z,19.50
2017-06-09T16:20:27.028Z,19.40
2017-06-09T16:22:55.109Z,19.50
2017-06-09T16:25:23.198Z,19.70
2017-06-09T16:27:51.271Z,19.70
2017-06-09T16:30:19.369Z,19.90
2017-06-09T16:32:47.448Z,19.90
2017-06-09T16:35:15.557Z,20.10
2017-06-09T16:37:43.634Z,20.00
2017-06-09T16:40:11.758Z,19.80
2017-06-09T16:42:39.830Z,19.80
2017-06-09T16:45:07.909Z,19.60
2017-06-09T16:47:36.005Z,19.50
2017-06-09T16:50:04.087Z,19.40
2017-06-09T16:52:32.173Z,19.40
2017-06-09T16:55:00.256Z,19.30
2017-06-09T16:57:28.352Z,19.50
2017-06-09T16:59:56.458Z,19.40
2017-06-09T17:02:24.554Z,19.30
2017-06-09T17:04:52.648Z,19.40
2017-06-09T17:07:20.784Z,19.20
2017-06-09T17:09:48.890Z,19.50
2017-06-09T17:12:16.971Z,19.50
2017-06-09T17:14:45.056Z,19.60
2017-06-09T17:17:13.136Z,19.70
2017-06-09T17:19:41.254Z,19.70
2017-06-09T17:22:09.340Z,19.90
2017-06-09T17:24:37.635Z,19.80
2017-06-09T17:27:05.725Z,19.60
2017-06-09T17:29:33.799Z,19.50
2017-06-09T17:32:01.892Z,19.50
2017-06-09T17:34:29.963Z,19.30
2017-06-09T17:36:58.056Z,19.50
2017-06-09T17:39:26.139Z,19.30
2017-06-09T17:41:54.232Z,19.30
2017-06-09T17:44:22.324Z,19.10
2017-06-09T17:46:50.451Z,19.10
2017-06-09T17:49:18.530Z,19.10
2017-06-09T17:51:46.612Z,19.30
2017-06-09T17:54:14.708Z,19.40
2017-06-09T17:56:42.783Z,19.40
2017-06-09T17:59:10.879Z,19.30
2017-06-09T18:01:38.963Z,19.30
2017-06-09T18:04:07.109Z,19.30
2017-06-09T18:06:35.187Z,19.00
2017-06-09T18:09:03.288Z,19.10
2017-06-09T18:11:31.365Z,19.00
2017-06-09T18:13:59.480Z,19.00
2017-06-09T18:16:27.547Z,19.00
2017-06-09T18:18:55.631Z,19.10
2017-06-09T18:21:23.737Z,19.30
2017-06-09T18:23:51.992Z,19.10
2017-06-09T18:26:20.267Z,19.10
2017-06-09T18:28:48.434Z,19.00
2017-06-09T18:31:16.514Z,19.00
2017-06-09T18:33:45.452Z,18.80
2017-06-09T18:36:34.306Z,18.80
2017-06-09T18:39:02.396Z,18.70
2017-06-09T18:41:31.399Z,18.60
2017-06-09T18:43:59.485Z,18.60
2017-06-09T18:46:27.568Z,18.60
2017-06-09T18:48:55.649Z,18.70
2017-06-09T18:51:23.732Z,18.50
2017-06-09T18:53:51.932Z,18.50
2017-06-09T18:56:20.016Z,18.70
2017-06-09T18:58:48.122Z,18.60
2017-06-09T19:01:16.202Z,18.60
2017-06-09T19:03:44.274Z,18.50
2017-06-09T19:06:12.365Z,18.40
2017-06-09T19:08:40.470Z,18.40
2017-06-09T19:11:08.555Z,18.50
2017-06-09T19:13:36.704Z,18.40
2017-06-09T19:16:04.980Z,18.20
2017-06-09T19:18:33.221Z,18.10
2017-06-09T19:21:01.336Z,18.10
2017-06-09T19:23:29.434Z,18.10
2017-06-09T19:25:57.717Z,18.10
2017-06-09T19:28:25.911Z,18.00
2017-06-09T19:30:54.023Z,18.10
2017-06-09T19:33:22.112Z,18.10
2017-06-09T19:35:50.196Z,18.00
2017-06-09T19:38:18.288Z,17.90
2017-06-09T19:40:46.372Z,17.80
2017-06-09T19:43:14.576Z,18.10
2017-06-09T19:45:42.653Z,17.70
2017-06-09T19:48:10.743Z,17.10
2017-06-09T19:50:38.850Z,16.50
2017-06-09T19:53:06.929Z,16.30
2017-06-09T19:55:35.027Z,15.90
2017-06-09T19:58:03.111Z,15.50
2017-06-09T20:00:31.201Z,15.10
2017-06-09T20:02:59.290Z,14.90
2017-06-09T20:05:27.382Z,14.70
2017-06-09T20:07:55.466Z,14.40
2017-06-09T20:10:23.573Z,14.10
2017-06-09T20:12:51.675Z,14.50
2017-06-09T20:15:19.928Z,14.60
2017-06-09T20:17:48.047Z,14.60
2017-06-09T20:20:16.221Z,14.30
2017-06-09T20:22:44.478Z,14.20
2017-06-09T20:25:12.799Z,14.00
2017-06-09T20:27:41.683Z,14.60
2017-06-09T20:30:09.777Z,14.40
2017-06-09T20:32:37.887Z,14.00
2017-06-09T20:35:06.036Z,14.10
2017-06-09T20:37:34.127Z,14.30
2017-06-09T20:40:02.239Z,14.70
2017-06-09T20:42:30.341Z,14.30
2017-06-09T20:44:59.247Z,14.00
2017-06-09T20:47:27.339Z,14.30
2017-06-09T20:49:55.421Z,14.70
2017-06-09T20:52:23.519Z,14.90
2017-06-09T20:54:51.600Z,14.80
2017-06-09T20:57:19.691Z,14.80
2017-06-09T20:59:47.783Z,15.00
2017-06-09T21:02:15.876Z,15.10
2017-06-09T21:04:43.973Z,14.90
2017-06-09T21:07:12.075Z,14.30
2017-06-09T21:09:40.161Z,14.30
2017-06-09T21:12:08.237Z,14.70
2017-06-09T21:14:36.338Z,14.90
2017-06-09T21:17:04.415Z,14.20
2017-06-09T21:19:32.495Z,13.90
2017-06-09T21:22:00.576Z,14.00
2017-06-09T21:24:28.694Z,14.10
2017-06-09T21:26:56.834Z,13.90
2017-06-09T21:29:24.919Z,14.30
2017-06-09T21:31:53.005Z,14.50
2017-06-09T21:34:21.079Z,14.70
2017-06-09T21:36:49.159Z,14.70
2017-06-09T21:39:17.271Z,14.80
2017-06-09T21:41:45.336Z,14.90
2017-06-09T21:44:13.556Z,14.90
2017-06-09T21:46:41.660Z,14.90
2017-06-09T21:49:09.757Z,14.10
2017-06-09T21:51:37.844Z,14.00
2017-06-09T21:54:05.936Z,13.90
2017-06-09T21:56:34.011Z,13.70
2017-06-09T21:59:02.080Z,13.70
2017-06-09T22:01:30.180Z,13.60
2017-06-09T22:03:58.276Z,13.70
2017-06-09T22:06:26.365Z,13.70
2017-06-09T22:08:54.443Z,13.70
2017-06-09T22:11:22.540Z,13.60
2017-06-09T22:13:50.719Z,13.60
2017-06-09T22:16:18.818Z,13.50
2017-06-09T22:18:46.909Z,13.80
2017-06-09T22:21:14.999Z,14.00
2017-06-09T22:23:43.091Z,13.80
2017-06-09T22:26:11.171Z,13.70
2017-06-09T22:28:39.263Z,14.00
2017-06-09T22:31:07.347Z,14.20
2017-06-09T22:33:35.436Z,14.40
2017-06-09T22:36:03.513Z,14.30
2017-06-09T22:38:31.613Z,14.30
2017-06-09T22:40:59.691Z,13.90
2017-06-09T22:43:27.790Z,13.80
2017-06-09T22:45:55.885Z,13.60
2017-06-09T22:48:23.966Z,13.60
2017-06-09T22:50:52.047Z,13.40
2017-06-09T22:53:20.136Z,13.30
2017-06-09T22:55:48.217Z,13.20
2017-06-09T22:58:16.295Z,13.10
2017-06-09T23:00:44.388Z,13.30
2017-06-09T23:03:12.464Z,13.20
2017-06-09T23:05:40.551Z,13.00
2017-06-09T23:08:08.640Z,12.90
2017-06-09T23:10:36.721Z,13.00
2017-06-09T23:13:04.808Z,13.10
2017-06-09T23:15:32.895Z,12.90
2017-06-09T23:18:00.993Z,12.90
2017-06-09T23:20:29.076Z,12.90
2017-06-09T23:22:57.194Z,12.90
2017-06-09T23:25:25.276Z,12.80
2017-06-09T23:28:08.255Z,12.80
2017-06-09T23:30:36.346Z,12.80
2017-06-09T23:33:04.431Z,12.70
2017-06-09T23:35:32.519Z,12.70
2017-06-09T23:38:00.607Z,12.70
2017-06-09T23:40:28.701Z,12.60
2017-06-09T23:42:56.794Z,12.70
2017-06-09T23:45:24.855Z,12.80
2017-06-09T23:47:52.945Z,12.80
2017-06-09T23:50:21.051Z,12.80
2017-06-09T23:52:49.136Z,12.60
2017-06-09T23:55:17.221Z,12.50
2017-06-09T23:57:45.304Z,12.60
